Terminal Aerodrome Forecast
Issued by NWS

Home | Current Version | Previous Version | Text Only | Print | Product List | Glossary Off
Versions: 1 2 3 4 5 6 7 8 9 10 11 12 13 14 15 16 17 18 19 20 21

000
FTUS43 KABR 232321
TAFATY
TAF
KATY 232321Z 2400/2424 03020KT P6SM OVC014
     FM240100 03019G27KT P6SM VCSH OVC015
     FM240600 03020G28KT P6SM OVC025
     FM240900 02020G28KT P6SM OVC035=

USA.gov is the U.S. government's official web portal to all federal, state and local government web resources and services.